sensor_id;sensor_type;location;lat;lon;timestamp;P1;durP1;ratioP1;P2;durP2;ratioP2
63217;SDS011;49314;48.278;16.378;2023-09-19T00:02:26;1.88;;;1.77;;
63217;SDS011;49314;48.278;16.378;2023-09-19T00:04:52;2.92;;;2.83;;
63217;SDS011;49314;48.278;16.378;2023-09-19T00:07:17;2.97;;;2.70;;
63217;SDS011;49314;48.278;16.378;2023-09-19T00:09:42;2.38;;;2.17;;
63217;SDS011;49314;48.278;16.378;2023-09-19T00:12:09;3.00;;;2.83;;
63217;SDS011;49314;48.278;16.378;2023-09-19T00:14:34;2.45;;;2.10;;
63217;SDS011;49314;48.278;16.378;2023-09-19T00:17:01;2.28;;;2.17;;
63217;SDS011;49314;48.278;16.378;2023-09-19T00:19:30;2.58;;;2.47;;
63217;SDS011;49314;48.278;16.378;2023-09-19T00:21:57;3.13;;;2.92;;
63217;SDS011;49314;48.278;16.378;2023-09-19T00:24:22;3.53;;;3.23;;
63217;SDS011;49314;48.278;16.378;2023-09-19T00:26:48;2.55;;;2.35;;
63217;SDS011;49314;48.278;16.378;2023-09-19T00:29:13;4.83;;;3.20;;
63217;SDS011;49314;48.278;16.378;2023-09-19T00:31:43;3.05;;;2.85;;
63217;SDS011;49314;48.278;16.378;2023-09-19T00:34:08;3.05;;;2.95;;
63217;SDS011;49314;48.278;16.378;2023-09-19T00:36:35;2.40;;;2.30;;
63217;SDS011;49314;48.278;16.378;2023-09-19T00:39:01;3.22;;;3.03;;
63217;SDS011;49314;48.278;16.378;2023-09-19T00:41:27;3.25;;;2.83;;
63217;SDS011;49314;48.278;16.378;2023-09-19T00:43:55;3.63;;;3.33;;
63217;SDS011;49314;48.278;16.378;2023-09-19T00:46:20;2.43;;;2.30;;
63217;SDS011;49314;48.278;16.378;2023-09-19T00:48:45;2.47;;;2.38;;
63217;SDS011;49314;48.278;16.378;2023-09-19T00:51:11;2.38;;;2.22;;
63217;SDS011;49314;48.278;16.378;2023-09-19T00:53:38;2.58;;;2.47;;
63217;SDS011;49314;48.278;16.378;2023-09-19T00:56:04;2.17;;;2.08;;
63217;SDS011;49314;48.278;16.378;2023-09-19T00:58:32;3.15;;;3.05;;
63217;SDS011;49314;48.278;16.378;2023-09-19T01:00:59;2.90;;;2.80;;
63217;SDS011;49314;48.278;16.378;2023-09-19T01:03:24;2.65;;;2.55;;
63217;SDS011;49314;48.278;16.378;2023-09-19T01:05:49;2.00;;;1.80;;
63217;SDS011;49314;48.278;16.378;2023-09-19T01:08:15;2.45;;;2.35;;
63217;SDS011;49314;48.278;16.378;2023-09-19T01:10:44;3.50;;;3.17;;
63217;SDS011;49314;48.278;16.378;2023-09-19T01:18:35;2.58;;;2.47;;
63217;SDS011;49314;48.278;16.378;2023-09-19T01:26:06;3.33;;;3.15;;
63217;SDS011;49314;48.278;16.378;2023-09-19T01:28:43;3.67;;;3.58;;
63217;SDS011;49314;48.278;16.378;2023-09-19T01:31:12;3.45;;;3.30;;
63217;SDS011;49314;48.278;16.378;2023-09-19T01:33:54;2.90;;;2.67;;
63217;SDS011;49314;48.278;16.378;2023-09-19T01:36:24;3.20;;;3.05;;
63217;SDS011;49314;48.278;16.378;2023-09-19T01:38:50;2.92;;;2.83;;
63217;SDS011;49314;48.278;16.378;2023-09-19T01:41:17;3.10;;;2.97;;
63217;SDS011;49314;48.278;16.378;2023-09-19T01:43:43;4.30;;;3.03;;
63217;SDS011;49314;48.278;16.378;2023-09-19T01:46:19;3.10;;;3.00;;
63217;SDS011;49314;48.278;16.378;2023-09-19T01:51:13;3.47;;;3.33;;
63217;SDS011;49314;48.278;16.378;2023-09-19T01:56:31;4.35;;;4.20;;
63217;SDS011;49314;48.278;16.378;2023-09-19T02:01:25;4.20;;;3.90;;
63217;SDS011;49314;48.278;16.378;2023-09-19T02:03:51;5.03;;;4.63;;
63217;SDS011;49314;48.278;16.378;2023-09-19T02:06:17;4.82;;;4.63;;
63217;SDS011;49314;48.278;16.378;2023-09-19T02:08:43;3.75;;;3.38;;
63217;SDS011;49314;48.278;16.378;2023-09-19T02:11:09;4.13;;;3.90;;
63217;SDS011;49314;48.278;16.378;2023-09-19T02:13:35;4.65;;;4.40;;
63217;SDS011;49314;48.278;16.378;2023-09-19T02:16:01;3.33;;;3.15;;
63217;SDS011;49314;48.278;16.378;2023-09-19T02:18:27;4.72;;;4.35;;
63217;SDS011;49314;48.278;16.378;2023-09-19T02:20:53;5.35;;;5.05;;
63217;SDS011;49314;48.278;16.378;2023-09-19T02:23:19;4.65;;;4.43;;
63217;SDS011;49314;48.278;16.378;2023-09-19T02:25:51;3.95;;;3.65;;
63217;SDS011;49314;48.278;16.378;2023-09-19T02:28:16;3.25;;;1.70;;
63217;SDS011;49314;48.278;16.378;2023-09-19T02:30:42;3.43;;;3.17;;
63217;SDS011;49314;48.278;16.378;2023-09-19T02:33:07;4.00;;;3.43;;
63217;SDS011;49314;48.278;16.378;2023-09-19T02:35:33;3.03;;;2.78;;
63217;SDS011;49314;48.278;16.378;2023-09-19T02:38:01;2.75;;;2.65;;
63217;SDS011;49314;48.278;16.378;2023-09-19T02:40:27;3.13;;;2.70;;
63217;SDS011;49314;48.278;16.378;2023-09-19T02:42:53;2.35;;;2.25;;
63217;SDS011;49314;48.278;16.378;2023-09-19T02:45:19;3.33;;;3.13;;
63217;SDS011;49314;48.278;16.378;2023-09-19T02:47:47;2.80;;;2.70;;
63217;SDS011;49314;48.278;16.378;2023-09-19T02:50:13;2.60;;;2.50;;
63217;SDS011;49314;48.278;16.378;2023-09-19T02:52:44;2.95;;;2.78;;
63217;SDS011;49314;48.278;16.378;2023-09-19T02:55:09;4.00;;;3.80;;
63217;SDS011;49314;48.278;16.378;2023-09-19T02:57:35;3.72;;;3.63;;
63217;SDS011;49314;48.278;16.378;2023-09-19T03:00:05;4.05;;;3.83;;
63217;SDS011;49314;48.278;16.378;2023-09-19T03:02:30;2.45;;;2.35;;
63217;SDS011;49314;48.278;16.378;2023-09-19T03:04:59;3.42;;;3.03;;
63217;SDS011;49314;48.278;16.378;2023-09-19T03:07:25;4.55;;;2.97;;
63217;SDS011;49314;48.278;16.378;2023-09-19T03:09:50;3.07;;;2.77;;
63217;SDS011;49314;48.278;16.378;2023-09-19T03:12:17;3.92;;;3.63;;
63217;SDS011;49314;48.278;16.378;2023-09-19T03:14:43;3.75;;;3.55;;
63217;SDS011;49314;48.278;16.378;2023-09-19T03:17:08;2.65;;;2.45;;
63217;SDS011;49314;48.278;16.378;2023-09-19T03:19:34;3.92;;;3.72;;
63217;SDS011;49314;48.278;16.378;2023-09-19T03:21:59;3.85;;;3.65;;
63217;SDS011;49314;48.278;16.378;2023-09-19T03:24:24;4.38;;;4.07;;
63217;SDS011;49314;48.278;16.378;2023-09-19T03:26:50;3.30;;;3.05;;
63217;SDS011;49314;48.278;16.378;2023-09-19T03:29:16;3.33;;;3.13;;
63217;SDS011;49314;48.278;16.378;2023-09-19T03:31:42;4.32;;;4.05;;
63217;SDS011;49314;48.278;16.378;2023-09-19T03:34:07;3.67;;;3.40;;
63217;SDS011;49314;48.278;16.378;2023-09-19T03:36:32;3.97;;;3.77;;
63217;SDS011;49314;48.278;16.378;2023-09-19T03:38:58;4.40;;;4.07;;
63217;SDS011;49314;48.278;16.378;2023-09-19T03:41:23;3.10;;;2.90;;
63217;SDS011;49314;48.278;16.378;2023-09-19T03:43:48;3.10;;;2.83;;
63217;SDS011;49314;48.278;16.378;2023-09-19T03:46:14;3.83;;;3.65;;
63217;SDS011;49314;48.278;16.378;2023-09-19T03:48:40;4.35;;;4.05;;
63217;SDS011;49314;48.278;16.378;2023-09-19T03:51:05;4.03;;;3.80;;
63217;SDS011;49314;48.278;16.378;2023-09-19T03:53:30;3.30;;;3.10;;
63217;SDS011;49314;48.278;16.378;2023-09-19T03:55:55;3.60;;;3.33;;
63217;SDS011;49314;48.278;16.378;2023-09-19T03:58:21;3.00;;;2.80;;
63217;SDS011;49314;48.278;16.378;2023-09-19T04:00:46;4.40;;;4.10;;
63217;SDS011;49314;48.278;16.378;2023-09-19T04:03:11;4.87;;;4.17;;
63217;SDS011;49314;48.278;16.378;2023-09-19T04:05:44;3.15;;;2.95;;
63217;SDS011;49314;48.278;16.378;2023-09-19T04:08:09;4.22;;;3.83;;
63217;SDS011;49314;48.278;16.378;2023-09-19T04:10:34;4.20;;;3.90;;
63217;SDS011;49314;48.278;16.378;2023-09-19T04:13:00;3.53;;;3.33;;
63217;SDS011;49314;48.278;16.378;2023-09-19T04:15:25;4.40;;;3.83;;
63217;SDS011;49314;48.278;16.378;2023-09-19T04:17:51;3.63;;;3.33;;
63217;SDS011;49314;48.278;16.378;2023-09-19T04:20:17;4.43;;;4.13;;
63217;SDS011;49314;48.278;16.378;2023-09-19T04:22:43;4.38;;;4.18;;
63217;SDS011;49314;48.278;16.378;2023-09-19T04:25:08;4.10;;;3.03;;
63217;SDS011;49314;48.278;16.378;2023-09-19T04:27:33;4.63;;;4.33;;
63217;SDS011;49314;48.278;16.378;2023-09-19T04:29:58;3.08;;;2.88;;
63217;SDS011;49314;48.278;16.378;2023-09-19T04:32:28;3.35;;;3.13;;
63217;SDS011;49314;48.278;16.378;2023-09-19T04:34:53;4.22;;;3.92;;
63217;SDS011;49314;48.278;16.378;2023-09-19T04:37:18;4.57;;;4.20;;
63217;SDS011;49314;48.278;16.378;2023-09-19T04:39:44;4.20;;;3.90;;
63217;SDS011;49314;48.278;16.378;2023-09-19T04:42:10;4.57;;;4.18;;
63217;SDS011;49314;48.278;16.378;2023-09-19T04:44:39;3.75;;;3.45;;
63217;SDS011;49314;48.278;16.378;2023-09-19T04:47:05;3.63;;;3.42;;
63217;SDS011;49314;48.278;16.378;2023-09-19T04:49:31;3.17;;;2.97;;
63217;SDS011;49314;48.278;16.378;2023-09-19T04:51:56;3.73;;;3.43;;
63217;SDS011;49314;48.278;16.378;2023-09-19T04:54:21;4.73;;;4.33;;
63217;SDS011;49314;48.278;16.378;2023-09-19T04:56:47;3.30;;;3.05;;
63217;SDS011;49314;48.278;16.378;2023-09-19T04:59:12;3.40;;;3.20;;
63217;SDS011;49314;48.278;16.378;2023-09-19T05:01:37;3.83;;;3.63;;
63217;SDS011;49314;48.278;16.378;2023-09-19T05:04:03;4.43;;;4.10;;
63217;SDS011;49314;48.278;16.378;2023-09-19T05:06:30;3.50;;;3.30;;
63217;SDS011;49314;48.278;16.378;2023-09-19T05:08:55;4.87;;;4.43;;
63217;SDS011;49314;48.278;16.378;2023-09-19T05:11:20;4.17;;;3.83;;
63217;SDS011;49314;48.278;16.378;2023-09-19T05:13:49;5.07;;;4.47;;
63217;SDS011;49314;48.278;16.378;2023-09-19T05:16:15;4.78;;;4.47;;
63217;SDS011;49314;48.278;16.378;2023-09-19T05:18:41;5.72;;;4.38;;
63217;SDS011;49314;48.278;16.378;2023-09-19T05:21:07;4.32;;;3.97;;
63217;SDS011;49314;48.278;16.378;2023-09-19T05:23:32;4.20;;;3.90;;
63217;SDS011;49314;48.278;16.378;2023-09-19T05:25:58;5.25;;;4.68;;
63217;SDS011;49314;48.278;16.378;2023-09-19T05:28:25;5.75;;;5.35;;
63217;SDS011;49314;48.278;16.378;2023-09-19T05:30:51;5.95;;;5.28;;
63217;SDS011;49314;48.278;16.378;2023-09-19T05:33:18;5.22;;;4.72;;
63217;SDS011;49314;48.278;16.378;2023-09-19T05:35:43;4.22;;;3.92;;
63217;SDS011;49314;48.278;16.378;2023-09-19T05:38:08;4.07;;;3.75;;
63217;SDS011;49314;48.278;16.378;2023-09-19T05:40:34;4.75;;;4.45;;
63217;SDS011;49314;48.278;16.378;2023-09-19T05:43:00;5.03;;;4.05;;
63217;SDS011;49314;48.278;16.378;2023-09-19T05:45:25;4.55;;;4.25;;
63217;SDS011;49314;48.278;16.378;2023-09-19T05:47:51;3.67;;;3.38;;
63217;SDS011;49314;48.278;16.378;2023-09-19T05:50:20;3.85;;;3.55;;
63217;SDS011;49314;48.278;16.378;2023-09-19T05:52:51;3.63;;;3.33;;
63217;SDS011;49314;48.278;16.378;2023-09-19T05:55:17;5.32;;;4.28;;
63217;SDS011;49314;48.278;16.378;2023-09-19T05:57:42;4.50;;;4.13;;
63217;SDS011;49314;48.278;16.378;2023-09-19T06:00:07;4.83;;;4.37;;
63217;SDS011;49314;48.278;16.378;2023-09-19T06:02:35;6.70;;;5.10;;
63217;SDS011;49314;48.278;16.378;2023-09-19T06:05:01;5.63;;;4.25;;
63217;SDS011;49314;48.278;16.378;2023-09-19T06:07:26;4.33;;;4.03;;
63217;SDS011;49314;48.278;16.378;2023-09-19T06:09:53;5.63;;;3.92;;
63217;SDS011;49314;48.278;16.378;2023-09-19T06:12:21;3.72;;;3.42;;
63217;SDS011;49314;48.278;16.378;2023-09-19T06:14:46;4.70;;;4.07;;
63217;SDS011;49314;48.278;16.378;2023-09-19T06:17:11;4.22;;;3.85;;
63217;SDS011;49314;48.278;16.378;2023-09-19T06:19:36;5.00;;;4.70;;
63217;SDS011;49314;48.278;16.378;2023-09-19T06:22:02;6.75;;;6.20;;
63217;SDS011;49314;48.278;16.378;2023-09-19T06:24:27;5.90;;;5.32;;
63217;SDS011;49314;48.278;16.378;2023-09-19T06:26:53;5.13;;;4.72;;
63217;SDS011;49314;48.278;16.378;2023-09-19T06:29:18;4.78;;;4.40;;
63217;SDS011;49314;48.278;16.378;2023-09-19T06:31:45;7.50;;;5.13;;
63217;SDS011;49314;48.278;16.378;2023-09-19T06:34:12;5.05;;;4.65;;
63217;SDS011;49314;48.278;16.378;2023-09-19T06:36:39;4.57;;;4.22;;
63217;SDS011;49314;48.278;16.378;2023-09-19T06:39:04;5.40;;;3.65;;
63217;SDS011;49314;48.278;16.378;2023-09-19T06:41:31;3.85;;;2.67;;
63217;SDS011;49314;48.278;16.378;2023-09-19T06:43:56;4.68;;;4.30;;
63217;SDS011;49314;48.278;16.378;2023-09-19T06:46:24;7.65;;;3.47;;
63217;SDS011;49314;48.278;16.378;2023-09-19T06:48:49;3.78;;;3.47;;
63217;SDS011;49314;48.278;16.378;2023-09-19T06:51:17;3.45;;;3.15;;
63217;SDS011;49314;48.278;16.378;2023-09-19T06:53:43;2.75;;;2.38;;
63217;SDS011;49314;48.278;16.378;2023-09-19T06:56:08;4.83;;;3.67;;
63217;SDS011;49314;48.278;16.378;2023-09-19T06:58:33;4.43;;;4.13;;
63217;SDS011;49314;48.278;16.378;2023-09-19T07:00:59;2.83;;;2.65;;
63217;SDS011;49314;48.278;16.378;2023-09-19T07:03:25;3.90;;;3.50;;
63217;SDS011;49314;48.278;16.378;2023-09-19T07:05:53;2.72;;;2.53;;
63217;SDS011;49314;48.278;16.378;2023-09-19T07:08:20;3.03;;;2.85;;
63217;SDS011;49314;48.278;16.378;2023-09-19T07:10:46;3.83;;;3.30;;
63217;SDS011;49314;48.278;16.378;2023-09-19T07:13:14;3.15;;;2.95;;
63217;SDS011;49314;48.278;16.378;2023-09-19T07:15:42;3.35;;;3.15;;
63217;SDS011;49314;48.278;16.378;2023-09-19T07:18:11;2.75;;;2.22;;
63217;SDS011;49314;48.278;16.378;2023-09-19T07:20:37;3.00;;;2.63;;
63217;SDS011;49314;48.278;16.378;2023-09-19T07:23:03;2.92;;;2.67;;
63217;SDS011;49314;48.278;16.378;2023-09-19T07:25:29;2.45;;;2.25;;
63217;SDS011;49314;48.278;16.378;2023-09-19T07:27:54;2.88;;;2.75;;
63217;SDS011;49314;48.278;16.378;2023-09-19T07:30:20;4.00;;;3.72;;
63217;SDS011;49314;48.278;16.378;2023-09-19T07:32:45;5.17;;;3.70;;
63217;SDS011;49314;48.278;16.378;2023-09-19T07:35:10;3.30;;;3.10;;
63217;SDS011;49314;48.278;16.378;2023-09-19T07:37:37;3.60;;;3.33;;
63217;SDS011;49314;48.278;16.378;2023-09-19T07:40:02;4.40;;;3.40;;
63217;SDS011;49314;48.278;16.378;2023-09-19T07:42:34;2.13;;;1.25;;
63217;SDS011;49314;48.278;16.378;2023-09-19T07:45:05;3.85;;;3.45;;
63217;SDS011;49314;48.278;16.378;2023-09-19T07:47:31;3.90;;;3.20;;
63217;SDS011;49314;48.278;16.378;2023-09-19T07:49:57;3.15;;;2.85;;
63217;SDS011;49314;48.278;16.378;2023-09-19T07:52:23;3.90;;;3.42;;
63217;SDS011;49314;48.278;16.378;2023-09-19T07:54:49;3.55;;;3.35;;
63217;SDS011;49314;48.278;16.378;2023-09-19T07:57:14;2.88;;;2.65;;
63217;SDS011;49314;48.278;16.378;2023-09-19T07:59:40;2.80;;;2.55;;
63217;SDS011;49314;48.278;16.378;2023-09-19T08:02:07;3.08;;;2.88;;
63217;SDS011;49314;48.278;16.378;2023-09-19T08:04:34;3.42;;;3.00;;
63217;SDS011;49314;48.278;16.378;2023-09-19T08:06:59;2.93;;;2.73;;
63217;SDS011;49314;48.278;16.378;2023-09-19T08:09:25;3.45;;;3.15;;
63217;SDS011;49314;48.278;16.378;2023-09-19T08:11:51;3.40;;;3.10;;
63217;SDS011;49314;48.278;16.378;2023-09-19T08:14:16;4.68;;;4.30;;
63217;SDS011;49314;48.278;16.378;2023-09-19T08:16:41;8.48;;;3.85;;
63217;SDS011;49314;48.278;16.378;2023-09-19T08:19:08;3.28;;;3.08;;
63217;SDS011;49314;48.278;16.378;2023-09-19T08:21:33;2.50;;;2.30;;
63217;SDS011;49314;48.278;16.378;2023-09-19T08:23:58;3.33;;;3.17;;
63217;SDS011;49314;48.278;16.378;2023-09-19T08:26:23;4.03;;;3.73;;
63217;SDS011;49314;48.278;16.378;2023-09-19T08:28:49;1.92;;;1.73;;
63217;SDS011;49314;48.278;16.378;2023-09-19T08:31:16;3.03;;;2.83;;
63217;SDS011;49314;48.278;16.378;2023-09-19T08:33:43;2.75;;;2.22;;
63217;SDS011;49314;48.278;16.378;2023-09-19T08:36:10;3.15;;;2.95;;
63217;SDS011;49314;48.278;16.378;2023-09-19T08:38:39;2.38;;;2.17;;
63217;SDS011;49314;48.278;16.378;2023-09-19T08:41:07;3.33;;;3.13;;
63217;SDS011;49314;48.278;16.378;2023-09-19T08:43:33;2.67;;;2.47;;
63217;SDS011;49314;48.278;16.378;2023-09-19T08:48:30;3.25;;;2.95;;
63217;SDS011;49314;48.278;16.378;2023-09-19T08:51:03;2.83;;;2.63;;
63217;SDS011;49314;48.278;16.378;2023-09-19T08:55:57;3.65;;;3.35;;
63217;SDS011;49314;48.278;16.378;2023-09-19T08:58:27;3.95;;;3.75;;
63217;SDS011;49314;48.278;16.378;2023-09-19T09:00:54;3.35;;;3.15;;
63217;SDS011;49314;48.278;16.378;2023-09-19T09:03:20;9.32;;;3.50;;
63217;SDS011;49314;48.278;16.378;2023-09-19T09:05:46;2.92;;;2.72;;
63217;SDS011;49314;48.278;16.378;2023-09-19T09:08:12;3.88;;;2.63;;
63217;SDS011;49314;48.278;16.378;2023-09-19T09:10:38;3.10;;;2.83;;
63217;SDS011;49314;48.278;16.378;2023-09-19T09:13:05;2.75;;;2.55;;
63217;SDS011;49314;48.278;16.378;2023-09-19T09:15:31;4.45;;;3.45;;
63217;SDS011;49314;48.278;16.378;2023-09-19T09:18:00;3.50;;;2.72;;
63217;SDS011;49314;48.278;16.378;2023-09-19T09:20:25;3.55;;;3.35;;
63217;SDS011;49314;48.278;16.378;2023-09-19T09:22:54;3.03;;;2.83;;
63217;SDS011;49314;48.278;16.378;2023-09-19T09:25:19;2.80;;;2.55;;
63217;SDS011;49314;48.278;16.378;2023-09-19T09:27:57;2.33;;;2.17;;
63217;SDS011;49314;48.278;16.378;2023-09-19T09:30:32;3.33;;;2.60;;
63217;SDS011;49314;48.278;16.378;2023-09-19T09:33:10;3.25;;;2.95;;
63217;SDS011;49314;48.278;16.378;2023-09-19T09:35:36;5.03;;;2.65;;
63217;SDS011;49314;48.278;16.378;2023-09-19T09:38:01;3.25;;;2.63;;
63217;SDS011;49314;48.278;16.378;2023-09-19T09:43:03;3.20;;;2.90;;
63217;SDS011;49314;48.278;16.378;2023-09-19T09:45:50;3.65;;;3.03;;
63217;SDS011;49314;48.278;16.378;2023-09-19T09:48:35;4.07;;;2.45;;
63217;SDS011;49314;48.278;16.378;2023-09-19T09:51:04;4.57;;;2.42;;
63217;SDS011;49314;48.278;16.378;2023-09-19T09:53:32;3.97;;;1.70;;
63217;SDS011;49314;48.278;16.378;2023-09-19T09:56:04;2.25;;;1.73;;
63217;SDS011;49314;48.278;16.378;2023-09-19T09:58:33;5.78;;;1.58;;
63217;SDS011;49314;48.278;16.378;2023-09-19T10:00:59;1.67;;;1.20;;
63217;SDS011;49314;48.278;16.378;2023-09-19T10:03:34;2.08;;;1.65;;
63217;SDS011;49314;48.278;16.378;2023-09-19T10:06:03;1.50;;;1.35;;
63217;SDS011;49314;48.278;16.378;2023-09-19T10:08:36;2.65;;;1.55;;
63217;SDS011;49314;48.278;16.378;2023-09-19T10:11:05;3.10;;;1.30;;
63217;SDS011;49314;48.278;16.378;2023-09-19T10:13:40;3.28;;;1.42;;
63217;SDS011;49314;48.278;16.378;2023-09-19T10:16:07;2.50;;;1.40;;
63217;SDS011;49314;48.278;16.378;2023-09-19T10:18:35;1.52;;;1.20;;
63217;SDS011;49314;48.278;16.378;2023-09-19T10:21:01;1.65;;;1.17;;
63217;SDS011;49314;48.278;16.378;2023-09-19T10:23:29;1.85;;;1.13;;
63217;SDS011;49314;48.278;16.378;2023-09-19T10:25:59;1.35;;;1.17;;
63217;SDS011;49314;48.278;16.378;2023-09-19T10:28:26;1.75;;;1.20;;
63217;SDS011;49314;48.278;16.378;2023-09-19T10:30:52;2.80;;;1.35;;
63217;SDS011;49314;48.278;16.378;2023-09-19T10:33:21;3.10;;;1.20;;
63217;SDS011;49314;48.278;16.378;2023-09-19T10:35:48;3.53;;;1.52;;
63217;SDS011;49314;48.278;16.378;2023-09-19T10:38:15;2.85;;;1.48;;
63217;SDS011;49314;48.278;16.378;2023-09-19T10:40:44;1.38;;;1.20;;
63217;SDS011;49314;48.278;16.378;2023-09-19T10:43:11;3.17;;;1.23;;
63217;SDS011;49314;48.278;16.378;2023-09-19T10:45:36;1.95;;;1.15;;
63217;SDS011;49314;48.278;16.378;2023-09-19T10:48:04;1.30;;;1.20;;
63217;SDS011;49314;48.278;16.378;2023-09-19T10:50:33;3.17;;;1.52;;
63217;SDS011;49314;48.278;16.378;2023-09-19T10:53:02;1.67;;;1.58;;
63217;SDS011;49314;48.278;16.378;2023-09-19T10:55:30;1.45;;;1.17;;
63217;SDS011;49314;48.278;16.378;2023-09-19T10:57:56;1.88;;;1.10;;
63217;SDS011;49314;48.278;16.378;2023-09-19T11:00:22;1.08;;;0.85;;
63217;SDS011;49314;48.278;16.378;2023-09-19T11:05:36;2.85;;;1.17;;
63217;SDS011;49314;48.278;16.378;2023-09-19T11:08:08;1.60;;;1.33;;
63217;SDS011;49314;48.278;16.378;2023-09-19T11:13:25;2.38;;;1.15;;
63217;SDS011;49314;48.278;16.378;2023-09-19T11:19:09;2.80;;;1.00;;
63217;SDS011;49314;48.278;16.378;2023-09-19T11:26:43;2.17;;;1.40;;
63217;SDS011;49314;48.278;16.378;2023-09-19T11:29:28;1.52;;;1.35;;
63217;SDS011;49314;48.278;16.378;2023-09-19T11:31:54;2.33;;;1.23;;
63217;SDS011;49314;48.278;16.378;2023-09-19T11:37:02;2.08;;;1.42;;
63217;SDS011;49314;48.278;16.378;2023-09-19T11:39:29;1.55;;;1.00;;
63217;SDS011;49314;48.278;16.378;2023-09-19T11:41:54;2.15;;;1.38;;
63217;SDS011;49314;48.278;16.378;2023-09-19T11:49:17;3.87;;;1.80;;
63217;SDS011;49314;48.278;16.378;2023-09-19T11:51:46;1.40;;;1.30;;
63217;SDS011;49314;48.278;16.378;2023-09-19T11:54:13;1.33;;;1.00;;
63217;SDS011;49314;48.278;16.378;2023-09-19T11:56:55;2.47;;;1.30;;
63217;SDS011;49314;48.278;16.378;2023-09-19T11:59:26;1.38;;;1.00;;
63217;SDS011;49314;48.278;16.378;2023-09-19T12:04:33;2.22;;;1.05;;
63217;SDS011;49314;48.278;16.378;2023-09-19T12:06:58;2.17;;;1.42;;
63217;SDS011;49314;48.278;16.378;2023-09-19T12:09:24;2.85;;;1.48;;
63217;SDS011;49314;48.278;16.378;2023-09-19T12:11:50;1.65;;;1.33;;
63217;SDS011;49314;48.278;16.378;2023-09-19T12:14:22;1.42;;;1.13;;
63217;SDS011;49314;48.278;16.378;2023-09-19T12:16:56;6.10;;;1.23;;
63217;SDS011;49314;48.278;16.378;2023-09-19T12:24:23;1.88;;;1.20;;
63217;SDS011;49314;48.278;16.378;2023-09-19T12:26:51;1.42;;;1.27;;
63217;SDS011;49314;48.278;16.378;2023-09-19T12:29:21;3.85;;;1.10;;
63217;SDS011;49314;48.278;16.378;2023-09-19T12:31:50;2.00;;;1.30;;
63217;SDS011;49314;48.278;16.378;2023-09-19T12:34:23;1.50;;;1.05;;
63217;SDS011;49314;48.278;16.378;2023-09-19T12:36:48;1.70;;;1.20;;
63217;SDS011;49314;48.278;16.378;2023-09-19T12:39:23;1.20;;;1.10;;
63217;SDS011;49314;48.278;16.378;2023-09-19T12:41:49;1.45;;;1.00;;
63217;SDS011;49314;48.278;16.378;2023-09-19T12:44:16;1.10;;;1.00;;
63217;SDS011;49314;48.278;16.378;2023-09-19T12:46:43;1.77;;;1.17;;
63217;SDS011;49314;48.278;16.378;2023-09-19T12:49:15;2.08;;;1.10;;
63217;SDS011;49314;48.278;16.378;2023-09-19T12:51:42;3.03;;;1.42;;
63217;SDS011;49314;48.278;16.378;2023-09-19T12:54:08;1.73;;;1.30;;
63217;SDS011;49314;48.278;16.378;2023-09-19T12:56:42;1.38;;;1.23;;
63217;SDS011;49314;48.278;16.378;2023-09-19T12:59:12;1.50;;;1.15;;
63217;SDS011;49314;48.278;16.378;2023-09-19T13:01:41;2.00;;;1.50;;
63217;SDS011;49314;48.278;16.378;2023-09-19T13:04:18;1.75;;;1.30;;
63217;SDS011;49314;48.278;16.378;2023-09-19T13:06:44;3.50;;;1.15;;
63217;SDS011;49314;48.278;16.378;2023-09-19T13:09:11;6.57;;;1.40;;
63217;SDS011;49314;48.278;16.378;2023-09-19T13:11:37;1.58;;;1.30;;
63217;SDS011;49314;48.278;16.378;2023-09-19T13:16:56;2.47;;;1.73;;
63217;SDS011;49314;48.278;16.378;2023-09-19T13:25:11;3.47;;;1.65;;
63217;SDS011;49314;48.278;16.378;2023-09-19T13:27:43;2.63;;;1.58;;
63217;SDS011;49314;48.278;16.378;2023-09-19T13:30:09;2.05;;;1.85;;
63217;SDS011;49314;48.278;16.378;2023-09-19T13:32:35;2.58;;;1.77;;
63217;SDS011;49314;48.278;16.378;2023-09-19T13:35:00;4.60;;;2.40;;
63217;SDS011;49314;48.278;16.378;2023-09-19T13:37:25;3.43;;;2.43;;
63217;SDS011;49314;48.278;16.378;2023-09-19T13:39:51;2.92;;;2.67;;
63217;SDS011;49314;48.278;16.378;2023-09-19T13:42:16;2.53;;;2.00;;
63217;SDS011;49314;48.278;16.378;2023-09-19T13:44:43;5.75;;;2.35;;
63217;SDS011;49314;48.278;16.378;2023-09-19T13:47:08;3.47;;;2.70;;
63217;SDS011;49314;48.278;16.378;2023-09-19T13:49:35;2.80;;;2.60;;
63217;SDS011;49314;48.278;16.378;2023-09-19T13:52:01;4.15;;;3.35;;
63217;SDS011;49314;48.278;16.378;2023-09-19T13:54:28;4.85;;;2.78;;
63217;SDS011;49314;48.278;16.378;2023-09-19T13:56:53;3.10;;;2.40;;
63217;SDS011;49314;48.278;16.378;2023-09-19T13:59:19;4.23;;;2.23;;
63217;SDS011;49314;48.278;16.378;2023-09-19T14:01:48;4.47;;;3.20;;
63217;SDS011;49314;48.278;16.378;2023-09-19T14:04:13;3.80;;;3.10;;
63217;SDS011;49314;48.278;16.378;2023-09-19T14:06:41;2.92;;;2.65;;
63217;SDS011;49314;48.278;16.378;2023-09-19T14:09:06;3.63;;;2.83;;
63217;SDS011;49314;48.278;16.378;2023-09-19T14:11:32;4.18;;;1.90;;
63217;SDS011;49314;48.278;16.378;2023-09-19T14:13:58;3.35;;;1.95;;
63217;SDS011;49314;48.278;16.378;2023-09-19T14:16:24;2.35;;;1.80;;
63217;SDS011;49314;48.278;16.378;2023-09-19T14:18:49;4.28;;;2.20;;
63217;SDS011;49314;48.278;16.378;2023-09-19T14:21:15;2.35;;;1.73;;
63217;SDS011;49314;48.278;16.378;2023-09-19T14:23:40;3.20;;;1.77;;
63217;SDS011;49314;48.278;16.378;2023-09-19T14:26:07;1.83;;;1.58;;
63217;SDS011;49314;48.278;16.378;2023-09-19T14:28:33;1.55;;;1.40;;
63217;SDS011;49314;48.278;16.378;2023-09-19T14:31:08;1.63;;;1.52;;
63217;SDS011;49314;48.278;16.378;2023-09-19T14:33:33;1.77;;;1.38;;
63217;SDS011;49314;48.278;16.378;2023-09-19T14:36:01;3.58;;;1.38;;
63217;SDS011;49314;48.278;16.378;2023-09-19T14:38:27;1.95;;;1.20;;
63217;SDS011;49314;48.278;16.378;2023-09-19T14:40:58;2.47;;;1.50;;
63217;SDS011;49314;48.278;16.378;2023-09-19T14:43:24;1.27;;;1.17;;
63217;SDS011;49314;48.278;16.378;2023-09-19T14:45:49;4.20;;;2.27;;
63217;SDS011;49314;48.278;16.378;2023-09-19T14:48:14;1.33;;;1.23;;
63217;SDS011;49314;48.278;16.378;2023-09-19T14:50:39;1.40;;;1.30;;
63217;SDS011;49314;48.278;16.378;2023-09-19T14:53:04;3.07;;;0.93;;
63217;SDS011;49314;48.278;16.378;2023-09-19T14:55:36;2.40;;;1.02;;
63217;SDS011;49314;48.278;16.378;2023-09-19T14:58:01;1.38;;;1.20;;
63217;SDS011;49314;48.278;16.378;2023-09-19T15:00:27;1.40;;;1.00;;
63217;SDS011;49314;48.278;16.378;2023-09-19T15:02:53;1.90;;;1.23;;
63217;SDS011;49314;48.278;16.378;2023-09-19T15:05:20;2.47;;;0.95;;
63217;SDS011;49314;48.278;16.378;2023-09-19T15:07:45;2.22;;;0.80;;
63217;SDS011;49314;48.278;16.378;2023-09-19T15:10:10;1.13;;;1.03;;
63217;SDS011;49314;48.278;16.378;2023-09-19T15:12:38;1.50;;;1.08;;
63217;SDS011;49314;48.278;16.378;2023-09-19T15:15:04;2.63;;;1.20;;
63217;SDS011;49314;48.278;16.378;2023-09-19T15:17:31;1.40;;;1.30;;
63217;SDS011;49314;48.278;16.378;2023-09-19T15:19:57;2.53;;;1.00;;
63217;SDS011;49314;48.278;16.378;2023-09-19T15:22:22;3.90;;;1.27;;
63217;SDS011;49314;48.278;16.378;2023-09-19T15:24:47;1.93;;;1.00;;
63217;SDS011;49314;48.278;16.378;2023-09-19T15:27:12;3.55;;;1.02;;
63217;SDS011;49314;48.278;16.378;2023-09-19T15:29:38;2.07;;;1.00;;
63217;SDS011;49314;48.278;16.378;2023-09-19T15:32:04;1.58;;;1.10;;
63217;SDS011;49314;48.278;16.378;2023-09-19T15:34:29;2.53;;;1.30;;
63217;SDS011;49314;48.278;16.378;2023-09-19T15:36:54;2.17;;;1.23;;